sensor_id;sensor_type;location;lat;lon;timestamp;P1;durP1;ratioP1;P2;durP2;ratioP2
26906;SDS011;14472;56.880;16.658;2023-07-13T00:00:33;3.40;;;2.28;;
26906;SDS011;14472;56.880;16.658;2023-07-13T00:02:58;3.40;;;2.17;;
26906;SDS011;14472;56.880;16.658;2023-07-13T00:05:24;3.05;;;2.13;;
26906;SDS011;14472;56.880;16.658;2023-07-13T00:07:50;3.67;;;2.17;;
26906;SDS011;14472;56.880;16.658;2023-07-13T00:10:17;2.38;;;2.10;;
26906;SDS011;14472;56.880;16.658;2023-07-13T00:12:44;2.60;;;2.08;;
26906;SDS011;14472;56.880;16.658;2023-07-13T00:15:20;3.42;;;2.20;;
26906;SDS011;14472;56.880;16.658;2023-07-13T00:17:51;3.85;;;2.13;;
26906;SDS011;14472;56.880;16.658;2023-07-13T00:20:19;4.85;;;2.63;;
26906;SDS011;14472;56.880;16.658;2023-07-13T00:22:47;3.38;;;2.28;;
26906;SDS011;14472;56.880;16.658;2023-07-13T00:25:14;6.10;;;2.60;;
26906;SDS011;14472;56.880;16.658;2023-07-13T00:27:41;5.35;;;2.40;;
26906;SDS011;14472;56.880;16.658;2023-07-13T00:30:08;3.08;;;2.60;;
26906;SDS011;14472;56.880;16.658;2023-07-13T00:32:34;3.80;;;2.38;;
26906;SDS011;14472;56.880;16.658;2023-07-13T00:35:00;2.78;;;2.30;;
26906;SDS011;14472;56.880;16.658;2023-07-13T00:37:28;4.50;;;2.58;;
26906;SDS011;14472;56.880;16.658;2023-07-13T00:39:54;4.75;;;2.55;;
26906;SDS011;14472;56.880;16.658;2023-07-13T00:42:19;3.83;;;2.38;;
26906;SDS011;14472;56.880;16.658;2023-07-13T00:47:46;3.47;;;2.65;;
26906;SDS011;14472;56.880;16.658;2023-07-13T00:50:13;3.70;;;2.42;;
26906;SDS011;14472;56.880;16.658;2023-07-13T00:52:42;3.15;;;2.60;;
26906;SDS011;14472;56.880;16.658;2023-07-13T00:55:11;4.47;;;2.70;;
26906;SDS011;14472;56.880;16.658;2023-07-13T00:57:39;3.17;;;2.70;;
26906;SDS011;14472;56.880;16.658;2023-07-13T01:00:06;3.95;;;2.70;;
26906;SDS011;14472;56.880;16.658;2023-07-13T01:02:35;4.82;;;2.83;;
26906;SDS011;14472;56.880;16.658;2023-07-13T01:05:10;2.97;;;2.58;;
26906;SDS011;14472;56.880;16.658;2023-07-13T01:07:38;4.82;;;2.72;;
26906;SDS011;14472;56.880;16.658;2023-07-13T01:10:04;5.82;;;3.40;;
26906;SDS011;14472;56.880;16.658;2023-07-13T01:12:30;4.65;;;2.83;;
26906;SDS011;14472;56.880;16.658;2023-07-13T01:14:57;3.10;;;2.80;;
26906;SDS011;14472;56.880;16.658;2023-07-13T01:17:25;4.75;;;2.75;;
26906;SDS011;14472;56.880;16.658;2023-07-13T01:19:52;5.38;;;3.00;;
26906;SDS011;14472;56.880;16.658;2023-07-13T01:22:18;6.80;;;2.95;;
26906;SDS011;14472;56.880;16.658;2023-07-13T01:24:47;4.57;;;2.83;;
26906;SDS011;14472;56.880;16.658;2023-07-13T01:27:14;3.65;;;2.85;;
26906;SDS011;14472;56.880;16.658;2023-07-13T01:29:43;6.15;;;3.45;;
26906;SDS011;14472;56.880;16.658;2023-07-13T01:32:13;3.70;;;2.90;;
26906;SDS011;14472;56.880;16.658;2023-07-13T01:34:40;4.28;;;2.97;;
26906;SDS011;14472;56.880;16.658;2023-07-13T01:37:07;8.05;;;2.88;;
26906;SDS011;14472;56.880;16.658;2023-07-13T01:39:34;5.00;;;2.97;;
26906;SDS011;14472;56.880;16.658;2023-07-13T01:42:00;6.68;;;3.22;;
26906;SDS011;14472;56.880;16.658;2023-07-13T01:44:26;5.45;;;3.00;;
26906;SDS011;14472;56.880;16.658;2023-07-13T01:46:55;5.00;;;2.90;;
26906;SDS011;14472;56.880;16.658;2023-07-13T01:49:21;6.82;;;3.60;;
26906;SDS011;14472;56.880;16.658;2023-07-13T01:51:47;4.45;;;2.70;;
26906;SDS011;14472;56.880;16.658;2023-07-13T01:54:16;3.47;;;2.83;;
26906;SDS011;14472;56.880;16.658;2023-07-13T01:56:41;7.40;;;3.45;;
26906;SDS011;14472;56.880;16.658;2023-07-13T01:59:08;7.00;;;3.15;;
26906;SDS011;14472;56.880;16.658;2023-07-13T02:01:34;6.75;;;3.00;;
26906;SDS011;14472;56.880;16.658;2023-07-13T02:03:59;5.68;;;3.20;;
26906;SDS011;14472;56.880;16.658;2023-07-13T02:06:25;3.05;;;2.75;;
26906;SDS011;14472;56.880;16.658;2023-07-13T02:08:51;4.30;;;2.95;;
26906;SDS011;14472;56.880;16.658;2023-07-13T02:11:17;5.55;;;2.90;;
26906;SDS011;14472;56.880;16.658;2023-07-13T02:13:43;5.65;;;3.22;;
26906;SDS011;14472;56.880;16.658;2023-07-13T02:16:09;5.00;;;3.03;;
26906;SDS011;14472;56.880;16.658;2023-07-13T02:18:34;3.78;;;2.72;;
26906;SDS011;14472;56.880;16.658;2023-07-13T02:21:00;3.95;;;2.90;;
26906;SDS011;14472;56.880;16.658;2023-07-13T02:23:29;5.85;;;3.00;;
26906;SDS011;14472;56.880;16.658;2023-07-13T02:25:58;3.80;;;3.03;;
26906;SDS011;14472;56.880;16.658;2023-07-13T02:28:27;5.10;;;2.95;;
26906;SDS011;14472;56.880;16.658;2023-07-13T02:30:53;7.65;;;3.10;;
26906;SDS011;14472;56.880;16.658;2023-07-13T02:33:19;5.07;;;3.10;;
26906;SDS011;14472;56.880;16.658;2023-07-13T02:35:45;4.28;;;3.08;;
26906;SDS011;14472;56.880;16.658;2023-07-13T02:38:11;8.35;;;3.15;;
26906;SDS011;14472;56.880;16.658;2023-07-13T02:40:37;7.20;;;3.17;;
26906;SDS011;14472;56.880;16.658;2023-07-13T02:43:03;5.70;;;3.03;;
26906;SDS011;14472;56.880;16.658;2023-07-13T02:45:29;3.28;;;2.97;;
26906;SDS011;14472;56.880;16.658;2023-07-13T02:47:55;4.75;;;3.10;;
26906;SDS011;14472;56.880;16.658;2023-07-13T02:50:20;5.25;;;3.10;;
26906;SDS011;14472;56.880;16.658;2023-07-13T02:52:46;5.60;;;3.30;;
26906;SDS011;14472;56.880;16.658;2023-07-13T02:55:12;4.78;;;3.33;;
26906;SDS011;14472;56.880;16.658;2023-07-13T02:57:38;4.25;;;3.40;;
26906;SDS011;14472;56.880;16.658;2023-07-13T03:00:04;5.60;;;3.35;;
26906;SDS011;14472;56.880;16.658;2023-07-13T03:02:31;5.82;;;3.45;;
26906;SDS011;14472;56.880;16.658;2023-07-13T03:04:57;4.93;;;3.13;;
26906;SDS011;14472;56.880;16.658;2023-07-13T03:07:23;6.40;;;3.28;;
26906;SDS011;14472;56.880;16.658;2023-07-13T03:09:54;4.88;;;3.30;;
26906;SDS011;14472;56.880;16.658;2023-07-13T03:12:21;5.75;;;3.72;;
26906;SDS011;14472;56.880;16.658;2023-07-13T03:14:47;5.25;;;3.28;;
26906;SDS011;14472;56.880;16.658;2023-07-13T03:17:12;3.58;;;3.28;;
26906;SDS011;14472;56.880;16.658;2023-07-13T03:19:38;3.85;;;3.20;;
26906;SDS011;14472;56.880;16.658;2023-07-13T03:22:04;4.20;;;3.45;;
26906;SDS011;14472;56.880;16.658;2023-07-13T03:24:32;3.45;;;2.80;;
26906;SDS011;14472;56.880;16.658;2023-07-13T03:26:58;4.72;;;3.40;;
26906;SDS011;14472;56.880;16.658;2023-07-13T03:29:24;6.35;;;3.70;;
26906;SDS011;14472;56.880;16.658;2023-07-13T03:31:49;3.47;;;3.17;;
26906;SDS011;14472;56.880;16.658;2023-07-13T03:34:15;6.22;;;3.30;;
26906;SDS011;14472;56.880;16.658;2023-07-13T03:36:41;7.65;;;3.90;;
26906;SDS011;14472;56.880;16.658;2023-07-13T03:39:06;4.78;;;3.45;;
26906;SDS011;14472;56.880;16.658;2023-07-13T03:41:33;5.40;;;3.28;;
26906;SDS011;14472;56.880;16.658;2023-07-13T03:43:59;3.92;;;3.50;;
26906;SDS011;14472;56.880;16.658;2023-07-13T03:46:25;4.28;;;3.00;;
26906;SDS011;14472;56.880;16.658;2023-07-13T03:48:51;5.90;;;3.63;;
26906;SDS011;14472;56.880;16.658;2023-07-13T03:51:17;5.32;;;3.55;;
26906;SDS011;14472;56.880;16.658;2023-07-13T03:53:44;4.65;;;3.45;;
26906;SDS011;14472;56.880;16.658;2023-07-13T03:56:12;6.70;;;3.40;;
26906;SDS011;14472;56.880;16.658;2023-07-13T03:58:42;3.92;;;3.30;;
26906;SDS011;14472;56.880;16.658;2023-07-13T04:01:10;6.32;;;3.35;;
26906;SDS011;14472;56.880;16.658;2023-07-13T04:03:37;4.63;;;3.38;;
26906;SDS011;14472;56.880;16.658;2023-07-13T04:06:04;3.28;;;2.97;;
26906;SDS011;14472;56.880;16.658;2023-07-13T04:08:32;5.60;;;3.72;;
26906;SDS011;14472;56.880;16.658;2023-07-13T04:10:59;4.18;;;3.53;;
26906;SDS011;14472;56.880;16.658;2023-07-13T04:13:25;3.72;;;3.42;;
26906;SDS011;14472;56.880;16.658;2023-07-13T04:15:51;5.57;;;3.30;;
26906;SDS011;14472;56.880;16.658;2023-07-13T04:18:18;4.20;;;3.20;;
26906;SDS011;14472;56.880;16.658;2023-07-13T04:20:45;4.20;;;3.75;;
26906;SDS011;14472;56.880;16.658;2023-07-13T04:23:12;4.47;;;3.53;;
26906;SDS011;14472;56.880;16.658;2023-07-13T04:25:38;4.07;;;3.47;;
26906;SDS011;14472;56.880;16.658;2023-07-13T04:28:03;6.47;;;3.60;;
26906;SDS011;14472;56.880;16.658;2023-07-13T04:30:32;4.88;;;3.55;;
26906;SDS011;14472;56.880;16.658;2023-07-13T04:32:57;3.63;;;3.33;;
26906;SDS011;14472;56.880;16.658;2023-07-13T04:35:23;4.80;;;3.00;;
26906;SDS011;14472;56.880;16.658;2023-07-13T04:37:49;6.57;;;3.38;;
26906;SDS011;14472;56.880;16.658;2023-07-13T04:40:18;6.50;;;3.15;;
26906;SDS011;14472;56.880;16.658;2023-07-13T04:42:45;4.72;;;3.40;;
26906;SDS011;14472;56.880;16.658;2023-07-13T04:45:12;4.22;;;3.47;;
26906;SDS011;14472;56.880;16.658;2023-07-13T04:47:39;3.80;;;3.00;;
26906;SDS011;14472;56.880;16.658;2023-07-13T04:50:06;5.72;;;3.42;;
26906;SDS011;14472;56.880;16.658;2023-07-13T04:52:33;4.85;;;3.42;;
26906;SDS011;14472;56.880;16.658;2023-07-13T04:54:59;5.70;;;3.13;;
26906;SDS011;14472;56.880;16.658;2023-07-13T04:57:25;4.35;;;3.35;;
26906;SDS011;14472;56.880;16.658;2023-07-13T04:59:52;4.30;;;3.05;;
26906;SDS011;14472;56.880;16.658;2023-07-13T05:02:18;4.68;;;3.42;;
26906;SDS011;14472;56.880;16.658;2023-07-13T05:04:46;3.83;;;3.00;;
26906;SDS011;14472;56.880;16.658;2023-07-13T05:07:13;4.53;;;3.45;;
26906;SDS011;14472;56.880;16.658;2023-07-13T05:09:39;6.95;;;3.45;;
26906;SDS011;14472;56.880;16.658;2023-07-13T05:12:05;4.35;;;3.10;;
26906;SDS011;14472;56.880;16.658;2023-07-13T05:14:32;4.30;;;2.95;;
26906;SDS011;14472;56.880;16.658;2023-07-13T05:16:58;4.82;;;3.35;;
26906;SDS011;14472;56.880;16.658;2023-07-13T05:19:23;3.83;;;3.40;;
26906;SDS011;14472;56.880;16.658;2023-07-13T05:21:49;4.05;;;3.10;;
26906;SDS011;14472;56.880;16.658;2023-07-13T05:24:15;4.10;;;3.08;;
26906;SDS011;14472;56.880;16.658;2023-07-13T05:26:40;7.97;;;3.30;;
26906;SDS011;14472;56.880;16.658;2023-07-13T05:29:06;3.47;;;2.83;;
26906;SDS011;14472;56.880;16.658;2023-07-13T05:31:32;4.47;;;3.08;;
26906;SDS011;14472;56.880;16.658;2023-07-13T05:33:57;3.80;;;3.15;;
26906;SDS011;14472;56.880;16.658;2023-07-13T05:36:23;3.40;;;2.83;;
26906;SDS011;14472;56.880;16.658;2023-07-13T05:38:49;3.38;;;2.60;;
26906;SDS011;14472;56.880;16.658;2023-07-13T05:41:15;3.92;;;2.85;;
26906;SDS011;14472;56.880;16.658;2023-07-13T05:43:40;4.30;;;2.92;;
26906;SDS011;14472;56.880;16.658;2023-07-13T05:46:06;3.60;;;2.97;;
26906;SDS011;14472;56.880;16.658;2023-07-13T05:48:32;4.82;;;3.20;;
26906;SDS011;14472;56.880;16.658;2023-07-13T05:50:58;6.00;;;3.10;;
26906;SDS011;14472;56.880;16.658;2023-07-13T05:53:23;4.65;;;3.13;;
26906;SDS011;14472;56.880;16.658;2023-07-13T05:55:49;4.72;;;3.38;;
26906;SDS011;14472;56.880;16.658;2023-07-13T05:58:16;3.65;;;2.80;;
26906;SDS011;14472;56.880;16.658;2023-07-13T06:00:42;5.22;;;2.90;;
26906;SDS011;14472;56.880;16.658;2023-07-13T06:03:08;7.10;;;3.00;;
26906;SDS011;14472;56.880;16.658;2023-07-13T06:05:35;5.90;;;3.17;;
26906;SDS011;14472;56.880;16.658;2023-07-13T06:08:03;2.80;;;2.53;;
26906;SDS011;14472;56.880;16.658;2023-07-13T06:10:29;4.80;;;2.90;;
26906;SDS011;14472;56.880;16.658;2023-07-13T06:12:57;5.25;;;2.70;;
26906;SDS011;14472;56.880;16.658;2023-07-13T06:15:23;4.55;;;3.20;;
26906;SDS011;14472;56.880;16.658;2023-07-13T06:17:48;4.00;;;2.70;;
26906;SDS011;14472;56.880;16.658;2023-07-13T06:20:14;3.25;;;2.50;;
26906;SDS011;14472;56.880;16.658;2023-07-13T06:22:40;3.92;;;2.50;;
26906;SDS011;14472;56.880;16.658;2023-07-13T06:25:06;5.72;;;2.80;;
26906;SDS011;14472;56.880;16.658;2023-07-13T06:27:32;3.58;;;2.80;;
26906;SDS011;14472;56.880;16.658;2023-07-13T06:29:58;3.38;;;2.30;;
26906;SDS011;14472;56.880;16.658;2023-07-13T06:32:23;6.65;;;2.72;;
26906;SDS011;14472;56.880;16.658;2023-07-13T06:34:49;5.65;;;2.47;;
26906;SDS011;14472;56.880;16.658;2023-07-13T06:37:17;4.50;;;2.20;;
26906;SDS011;14472;56.880;16.658;2023-07-13T06:39:43;4.45;;;2.50;;
26906;SDS011;14472;56.880;16.658;2023-07-13T06:42:09;3.72;;;2.20;;
26906;SDS011;14472;56.880;16.658;2023-07-13T06:44:35;3.92;;;1.95;;
26906;SDS011;14472;56.880;16.658;2023-07-13T06:47:01;3.97;;;2.47;;
26906;SDS011;14472;56.880;16.658;2023-07-13T06:49:27;4.00;;;1.90;;
26906;SDS011;14472;56.880;16.658;2023-07-13T06:51:53;5.00;;;2.30;;
26906;SDS011;14472;56.880;16.658;2023-07-13T06:54:19;3.70;;;2.00;;
26906;SDS011;14472;56.880;16.658;2023-07-13T06:56:44;3.00;;;2.05;;
26906;SDS011;14472;56.880;16.658;2023-07-13T06:59:10;3.75;;;2.03;;
26906;SDS011;14472;56.880;16.658;2023-07-13T07:01:36;4.57;;;2.03;;
26906;SDS011;14472;56.880;16.658;2023-07-13T07:04:02;4.78;;;1.85;;
26906;SDS011;14472;56.880;16.658;2023-07-13T07:06:29;3.47;;;1.90;;
26906;SDS011;14472;56.880;16.658;2023-07-13T07:08:54;3.72;;;2.00;;
26906;SDS011;14472;56.880;16.658;2023-07-13T07:11:24;4.60;;;1.85;;
26906;SDS011;14472;56.880;16.658;2023-07-13T07:13:51;4.82;;;2.00;;
26906;SDS011;14472;56.880;16.658;2023-07-13T07:16:18;3.83;;;1.95;;
26906;SDS011;14472;56.880;16.658;2023-07-13T07:18:45;6.25;;;2.00;;
26906;SDS011;14472;56.880;16.658;2023-07-13T07:21:11;5.82;;;2.22;;
26906;SDS011;14472;56.880;16.658;2023-07-13T07:23:37;7.80;;;2.10;;
26906;SDS011;14472;56.880;16.658;2023-07-13T07:26:03;4.30;;;2.00;;
26906;SDS011;14472;56.880;16.658;2023-07-13T07:28:29;5.43;;;2.38;;
26906;SDS011;14472;56.880;16.658;2023-07-13T07:30:56;3.97;;;1.70;;
26906;SDS011;14472;56.880;16.658;2023-07-13T07:33:23;4.32;;;2.17;;
26906;SDS011;14472;56.880;16.658;2023-07-13T07:35:50;5.15;;;2.20;;
26906;SDS011;14472;56.880;16.658;2023-07-13T07:38:16;5.00;;;1.70;;
26906;SDS011;14472;56.880;16.658;2023-07-13T07:40:42;3.28;;;1.90;;
26906;SDS011;14472;56.880;16.658;2023-07-13T07:43:08;4.80;;;2.10;;
26906;SDS011;14472;56.880;16.658;2023-07-13T07:45:35;4.35;;;1.92;;
26906;SDS011;14472;56.880;16.658;2023-07-13T07:48:03;3.88;;;1.88;;
26906;SDS011;14472;56.880;16.658;2023-07-13T07:50:29;3.58;;;1.80;;
26906;SDS011;14472;56.880;16.658;2023-07-13T07:52:56;5.45;;;2.08;;
26906;SDS011;14472;56.880;16.658;2023-07-13T07:55:22;4.93;;;1.90;;
26906;SDS011;14472;56.880;16.658;2023-07-13T07:57:48;4.15;;;1.80;;
26906;SDS011;14472;56.880;16.658;2023-07-13T08:00:16;4.78;;;1.85;;
26906;SDS011;14472;56.880;16.658;2023-07-13T08:02:42;4.40;;;1.80;;
26906;SDS011;14472;56.880;16.658;2023-07-13T08:05:09;6.60;;;1.75;;
26906;SDS011;14472;56.880;16.658;2023-07-13T08:07:36;4.32;;;1.65;;
26906;SDS011;14472;56.880;16.658;2023-07-13T08:10:02;4.43;;;1.70;;
26906;SDS011;14472;56.880;16.658;2023-07-13T08:12:29;4.70;;;1.98;;
26906;SDS011;14472;56.880;16.658;2023-07-13T08:14:54;4.28;;;1.80;;
26906;SDS011;14472;56.880;16.658;2023-07-13T08:17:23;3.67;;;1.50;;
26906;SDS011;14472;56.880;16.658;2023-07-13T08:19:49;2.10;;;1.50;;
26906;SDS011;14472;56.880;16.658;2023-07-13T08:22:15;5.15;;;1.70;;
26906;SDS011;14472;56.880;16.658;2023-07-13T08:24:41;2.92;;;1.35;;
26906;SDS011;14472;56.880;16.658;2023-07-13T08:27:10;2.25;;;1.45;;
26906;SDS011;14472;56.880;16.658;2023-07-13T08:29:36;9.82;;;1.88;;
26906;SDS011;14472;56.880;16.658;2023-07-13T08:32:03;2.17;;;1.17;;
26906;SDS011;14472;56.880;16.658;2023-07-13T08:34:30;6.38;;;1.80;;
26906;SDS011;14472;56.880;16.658;2023-07-13T08:36:56;3.55;;;1.52;;
26906;SDS011;14472;56.880;16.658;2023-07-13T08:39:22;4.47;;;1.35;;
26906;SDS011;14472;56.880;16.658;2023-07-13T08:41:49;3.50;;;1.23;;
26906;SDS011;14472;56.880;16.658;2023-07-13T08:44:20;6.75;;;1.50;;
26906;SDS011;14472;56.880;16.658;2023-07-13T08:46:57;3.70;;;1.50;;
26906;SDS011;14472;56.880;16.658;2023-07-13T08:49:24;3.00;;;1.30;;
26906;SDS011;14472;56.880;16.658;2023-07-13T08:51:53;3.80;;;1.55;;
26906;SDS011;14472;56.880;16.658;2023-07-13T08:54:32;1.67;;;1.30;;
26906;SDS011;14472;56.880;16.658;2023-07-13T08:57:18;3.45;;;1.60;;
26906;SDS011;14472;56.880;16.658;2023-07-13T08:59:46;2.70;;;1.38;;
26906;SDS011;14472;56.880;16.658;2023-07-13T09:15:49;1.95;;;1.20;;
26906;SDS011;14472;56.880;16.658;2023-07-13T09:23:19;2.88;;;1.10;;
26906;SDS011;14472;56.880;16.658;2023-07-13T09:25:47;1.30;;;1.00;;
26906;SDS011;14472;56.880;16.658;2023-07-13T09:28:27;3.90;;;1.20;;
26906;SDS011;14472;56.880;16.658;2023-07-13T09:31:06;3.20;;;1.10;;
26906;SDS011;14472;56.880;16.658;2023-07-13T09:33:37;3.20;;;1.30;;
26906;SDS011;14472;56.880;16.658;2023-07-13T09:36:21;1.65;;;1.10;;
26906;SDS011;14472;56.880;16.658;2023-07-13T09:39:14;2.58;;;1.27;;
26906;SDS011;14472;56.880;16.658;2023-07-13T09:41:53;3.40;;;1.10;;
26906;SDS011;14472;56.880;16.658;2023-07-13T09:44:37;2.10;;;1.25;;
26906;SDS011;14472;56.880;16.658;2023-07-13T09:47:15;2.58;;;1.40;;
26906;SDS011;14472;56.880;16.658;2023-07-13T09:49:49;3.25;;;1.40;;
26906;SDS011;14472;56.880;16.658;2023-07-13T09:52:23;4.80;;;1.92;;
26906;SDS011;14472;56.880;16.658;2023-07-13T09:54:51;2.17;;;1.20;;
26906;SDS011;14472;56.880;16.658;2023-07-13T09:57:23;3.55;;;1.50;;
26906;SDS011;14472;56.880;16.658;2023-07-13T09:59:51;3.80;;;1.30;;
26906;SDS011;14472;56.880;16.658;2023-07-13T10:02:34;2.75;;;1.50;;
26906;SDS011;14472;56.880;16.658;2023-07-13T10:05:02;2.08;;;1.13;;
26906;SDS011;14472;56.880;16.658;2023-07-13T10:07:34;3.95;;;1.20;;
26906;SDS011;14472;56.880;16.658;2023-07-13T10:10:12;3.72;;;1.40;;
26906;SDS011;14472;56.880;16.658;2023-07-13T10:12:44;3.58;;;1.20;;
26906;SDS011;14472;56.880;16.658;2023-07-13T10:15:17;1.70;;;1.17;;
26906;SDS011;14472;56.880;16.658;2023-07-13T10:17:44;2.03;;;1.40;;
26906;SDS011;14472;56.880;16.658;2023-07-13T10:20:11;3.53;;;1.33;;
26906;SDS011;14472;56.880;16.658;2023-07-13T10:25:20;1.45;;;1.15;;
26906;SDS011;14472;56.880;16.658;2023-07-13T10:27:50;3.15;;;1.35;;
26906;SDS011;14472;56.880;16.658;2023-07-13T10:32:53;2.42;;;1.08;;
26906;SDS011;14472;56.880;16.658;2023-07-13T10:35:20;3.10;;;1.45;;
26906;SDS011;14472;56.880;16.658;2023-07-13T10:40:22;1.98;;;1.00;;
26906;SDS011;14472;56.880;16.658;2023-07-13T10:42:52;2.72;;;1.35;;
26906;SDS011;14472;56.880;16.658;2023-07-13T10:45:22;2.70;;;1.13;;
26906;SDS011;14472;56.880;16.658;2023-07-13T10:47:49;4.43;;;1.00;;
26906;SDS011;14472;56.880;16.658;2023-07-13T10:50:22;3.15;;;1.30;;
26906;SDS011;14472;56.880;16.658;2023-07-13T10:52:53;4.95;;;1.50;;
26906;SDS011;14472;56.880;16.658;2023-07-13T10:58:12;2.20;;;1.20;;
26906;SDS011;14472;56.880;16.658;2023-07-13T11:00:47;2.42;;;1.33;;
26906;SDS011;14472;56.880;16.658;2023-07-13T11:03:28;2.47;;;1.20;;
26906;SDS011;14472;56.880;16.658;2023-07-13T11:13:59;1.35;;;1.00;;
26906;SDS011;14472;56.880;16.658;2023-07-13T11:17:02;2.38;;;1.30;;
26906;SDS011;14472;56.880;16.658;2023-07-13T11:22:09;4.30;;;1.15;;
26906;SDS011;14472;56.880;16.658;2023-07-13T11:32:50;2.25;;;1.02;;
26906;SDS011;14472;56.880;16.658;2023-07-13T11:35:27;4.13;;;1.30;;
26906;SDS011;14472;56.880;16.658;2023-07-13T11:37:53;4.35;;;1.15;;
26906;SDS011;14472;56.880;16.658;2023-07-13T11:40:21;2.15;;;1.50;;
26906;SDS011;14472;56.880;16.658;2023-07-13T11:42:50;4.35;;;1.20;;
26906;SDS011;14472;56.880;16.658;2023-07-13T11:45:21;2.83;;;1.15;;
26906;SDS011;14472;56.880;16.658;2023-07-13T11:47:48;1.88;;;1.15;;
26906;SDS011;14472;56.880;16.658;2023-07-13T11:50:21;1.85;;;1.00;;
26906;SDS011;14472;56.880;16.658;2023-07-13T11:52:50;1.95;;;1.20;;
26906;SDS011;14472;56.880;16.658;2023-07-13T11:55:20;2.75;;;1.30;;
26906;SDS011;14472;56.880;16.658;2023-07-13T11:57:54;2.33;;;1.52;;
26906;SDS011;14472;56.880;16.658;2023-07-13T12:00:25;1.98;;;0.90;;
26906;SDS011;14472;56.880;16.658;2023-07-13T12:02:55;6.25;;;1.35;;
26906;SDS011;14472;56.880;16.658;2023-07-13T12:05:24;2.72;;;1.40;;
26906;SDS011;14472;56.880;16.658;2023-07-13T12:07:50;1.67;;;1.20;;
26906;SDS011;14472;56.880;16.658;2023-07-13T12:10:24;2.28;;;1.20;;
26906;SDS011;14472;56.880;16.658;2023-07-13T12:12:56;2.95;;;1.30;;
26906;SDS011;14472;56.880;16.658;2023-07-13T12:15:35;2.22;;;1.20;;
26906;SDS011;14472;56.880;16.658;2023-07-13T12:18:14;2.95;;;1.33;;
26906;SDS011;14472;56.880;16.658;2023-07-13T12:20:43;1.67;;;1.00;;
26906;SDS011;14472;56.880;16.658;2023-07-13T12:23:32;5.68;;;1.60;;
26906;SDS011;14472;56.880;16.658;2023-07-13T12:25:58;2.50;;;1.40;;
26906;SDS011;14472;56.880;16.658;2023-07-13T12:31:01;2.85;;;1.35;;
26906;SDS011;14472;56.880;16.658;2023-07-13T12:33:29;2.88;;;1.20;;
26906;SDS011;14472;56.880;16.658;2023-07-13T12:35:57;1.98;;;1.20;;
26906;SDS011;14472;56.880;16.658;2023-07-13T12:38:26;3.90;;;1.20;;
26906;SDS011;14472;56.880;16.658;2023-07-13T12:40:52;4.68;;;1.25;;
26906;SDS011;14472;56.880;16.658;2023-07-13T12:43:22;2.28;;;1.30;;
26906;SDS011;14472;56.880;16.658;2023-07-13T12:45:56;3.83;;;1.35;;
26906;SDS011;14472;56.880;16.658;2023-07-13T12:48:43;2.13;;;1.25;;
26906;SDS011;14472;56.880;16.658;2023-07-13T12:51:13;3.50;;;1.10;;
26906;SDS011;14472;56.880;16.658;2023-07-13T12:53:41;2.88;;;1.35;;
26906;SDS011;14472;56.880;16.658;2023-07-13T12:56:15;6.28;;;1.83;;
26906;SDS011;14472;56.880;16.658;2023-07-13T12:58:48;3.85;;;1.27;;
26906;SDS011;14472;56.880;16.658;2023-07-13T13:01:19;2.45;;;1.35;;
26906;SDS011;14472;56.880;16.658;2023-07-13T13:03:51;3.25;;;1.33;;
26906;SDS011;14472;56.880;16.658;2023-07-13T13:06:21;5.45;;;1.40;;
26906;SDS011;14472;56.880;16.658;2023-07-13T13:08:50;5.28;;;1.50;;
26906;SDS011;14472;56.880;16.658;2023-07-13T13:11:19;4.53;;;1.50;;
26906;SDS011;14472;56.880;16.658;2023-07-13T13:13:46;1.83;;;1.20;;
26906;SDS011;14472;56.880;16.658;2023-07-13T13:18:47;4.28;;;1.13;;
26906;SDS011;14472;56.880;16.658;2023-07-13T13:21:18;4.90;;;1.10;;
26906;SDS011;14472;56.880;16.658;2023-07-13T13:23:45;12.98;;;2.83;;
26906;SDS011;14472;56.880;16.658;2023-07-13T13:26:14;9.63;;;1.85;;
26906;SDS011;14472;56.880;16.658;2023-07-13T13:28:41;10.20;;;1.80;;
26906;SDS011;14472;56.880;16.658;2023-07-13T13:31:08;3.70;;;1.38;;
26906;SDS011;14472;56.880;16.658;2023-07-13T13:33:38;3.88;;;1.30;;
26906;SDS011;14472;56.880;16.658;2023-07-13T13:36:20;4.50;;;1.30;;
26906;SDS011;14472;56.880;16.658;2023-07-13T13:38:48;2.95;;;1.30;;
26906;SDS011;14472;56.880;16.658;2023-07-13T13:41:15;3.38;;;1.30;;
26906;SDS011;14472;56.880;16.658;2023-07-13T13:43:41;4.47;;;1.50;;
26906;SDS011;14472;56.880;16.658;2023-07-13T13:46:20;5.40;;;2.00;;
26906;SDS011;14472;56.880;16.658;2023-07-13T13:48:50;7.68;;;1.85;;
26906;SDS011;14472;56.880;16.658;2023-07-13T13:51:16;2.95;;;1.73;;
26906;SDS011;14472;56.880;16.658;2023-07-13T13:53:44;3.00;;;1.67;;
26906;SDS011;14472;56.880;16.658;2023-07-13T13:56:11;3.03;;;1.88;;
26906;SDS011;14472;56.880;16.658;2023-07-13T13:58:38;3.40;;;2.22;;
26906;SDS011;14472;56.880;16.658;2023-07-13T14:01:04;4.93;;;2.00;;
26906;SDS011;14472;56.880;16.658;2023-07-13T14:03:37;2.58;;;1.42;;
26906;SDS011;14472;56.880;16.658;2023-07-13T14:06:03;2.08;;;1.33;;
26906;SDS011;14472;56.880;16.658;2023-07-13T14:08:28;2.95;;;1.65;;
26906;SDS011;14472;56.880;16.658;2023-07-13T14:10:55;2.95;;;1.45;;
26906;SDS011;14472;56.880;16.658;2023-07-13T14:13:42;2.38;;;1.70;;
26906;SDS011;14472;56.880;16.658;2023-07-13T14:16:21;4.47;;;3.33;;
26906;SDS011;14472;56.880;16.658;2023-07-13T14:18:52;2.40;;;2.10;;
26906;SDS011;14472;56.880;16.658;2023-07-13T14:21:21;1.48;;;1.30;;
26906;SDS011;14472;56.880;16.658;2023-07-13T14:23:47;1.83;;;1.00;;
26906;SDS011;14472;56.880;16.658;2023-07-13T14:26:16;1.17;;;1.05;;
26906;SDS011;14472;56.880;16.658;2023-07-13T14:28:47;1.55;;;1.08;;
26906;SDS011;14472;56.880;16.658;2023-07-13T14:31:14;1.80;;;1.20;;
26906;SDS011;14472;56.880;16.658;2023-07-13T14:33:41;1.45;;;1.13;;
26906;SDS011;14472;56.880;16.658;2023-07-13T14:36:53;1.55;;;1.35;;
26906;SDS011;14472;56.880;16.658;2023-07-13T14:38:54;1.52;;;1.15;;
26906;SDS011;14472;56.880;16.658;2023-07-13T14:41:20;1.58;;;1.20;;
26906;SDS011;14472;56.880;16.658;2023-07-13T14:43:46;2.95;;;1.45;;
26906;SDS011;14472;56.880;16.658;2023-07-13T14:46:24;1.50;;;1.10;;
26906;SDS011;14472;56.880;16.658;2023-07-13T14:49:39;2.28;;;1.15;;
26906;SDS011;14472;56.880;16.658;2023-07-13T14:51:54;1.83;;;1.20;;
26906;SDS011;14472;56.880;16.658;2023-07-13T14:54:22;1.75;;;1.10;;
26906;SDS011;14472;56.880;16.658;2023-07-13T14:56:48;1.63;;;1.08;;
26906;SDS011;14472;56.880;16.658;2023-07-13T14:59:15;2.22;;;1.27;;
26906;SDS011;14472;56.880;16.658;2023-07-13T15:01:43;3.42;;;1.42;;
26906;SDS011;14472;56.880;16.658;2023-07-13T15:04:10;1.33;;;1.20;;
26906;SDS011;14472;56.880;16.658;2023-07-13T15:09:24;1.60;;;1.00;;
26906;SDS011;14472;56.880;16.658;2023-07-13T15:11:57;0.90;;;0.90;;
26906;SDS011;14472;56.880;16.658;2023-07-13T15:14:23;3.50;;;1.23;;
26906;SDS011;14472;56.880;16.658;2023-07-13T15:16:51;2.17;;;1.30;;
26906;SDS011;14472;56.880;16.658;2023-07-13T15:19:19;2.15;;;1.17;;
26906;SDS011;14472;56.880;16.658;2023-07-13T15:21:46;2.25;;;1.33;;
26906;SDS011;14472;56.880;16.658;2023-07-13T15:24:12;1.70;;;1.10;;
26906;SDS011;14472;56.880;16.658;2023-07-13T15:26:39;1.38;;;0.88;;
26906;SDS011;14472;56.880;16.658;2023-07-13T15:29:05;2.13;;;1.20;;
26906;SDS011;14472;56.880;16.658;2023-07-13T15:31:31;1.95;;;1.25;;
26906;SDS011;14472;56.880;16.658;2023-07-13T15:33:58;2.45;;;1.20;;
26906;SDS011;14472;56.880;16.658;2023-07-13T15:36:25;2.80;;;1.20;;
26906;SDS011;14472;56.880;16.658;2023-07-13T15:38:52;3.53;;;1.27;;